Wright Patterson Air Force Base
KFFO : rendu visible

Aérodrome :











RETROUVEZ-NOUS SUR...

 
LOGIN :

S'inscrire | Disclaimer

   EN    FR    IT 

 









Légende :    VFR   VFR Marginal   IFR   IFR Intensif   IFR Très Intensif
Visi : 
Plafond : 
>= 8 km
>= 3000ft
5 à 8 km
1000 à 3000 ft
1500m à 5 km
500 à 1000 ft
800 à 1500m
200 à 500 ft
< 800m
< 200 ft
Symboles :   Orages  Brouillard  Fortes neiges  Fortes précipitations  Vent > 20 kt






- Altitude de l'aérodrome : 823 ft


KFFO - Wright Patterson Air Force Base

DERNIER METAR :
  • 192056Z AUTO 35007KT 10SM CLR 04/M08 A3047 RMK AO2 SLP330 T00421079 57010

METARs EXPIRÉS :
  • 191956Z AUTO 33007KT 10SM CLR 04/M08 A3048 RMK AO2 SLP333 T00401081
  • 191856Z AUTO 27003KT 10SM CLR 03/M09 A3049 RMK AO2 SLP337 T00341086

TAF TAF KFFO
Valide du 19 à 19h jusqu'au 21 à 01h UTC


191900Z 1919/2101 33009KT 9999 FEW200 QNH3046INS
BECMG 2012/2013 35012G18KT 9999 SCT060 BKN100 QNH3048INS
BECMG 2018/2019 01012KT 9999 SKC QNH3053INS TX04/1921Z TNM04/2013Z



MET'MAP, la Météo Aéronautique d'un coup d'oeil ! - Copyright ORBIFLY Décembre 2007 - Disclaimer

ORBIFLY MET'MAP TEAM :

Programmation & Développement : Alexandra Zaïnal
Sur une idée originale de : Baudouin d'Aumeries
Assistance à la programmation : Marc-Olivier Méhu
Soutien technique & logistique : Manuel Goepfert

Contact : metmap@orbifly.com




SOURCES & CREDITS :

   NOAA       Earth
Advisory